Time;durP1;ratioP1;P1;durP2;ratioP2;P2;SDS_P1;SDS_P2;PMS_P1;PMS_P2;Temp;Humidity;BMP_temperature;BMP_pressure;BME280_temperature;BME280_humidity;BME280_pressure;Samples;Min_cycle;Max_cycle;Signal;HPM_P1;HPM_P2
2023/03/02 08:54:54;;;;;;;8.50;1.98;;;17.00;86.20;;;;;;5112102;27;20987;-42
2023/03/02 08:57:21;;;;;;;9.35;3.78;;;17.00;86.90;;;;;;5107812;28;20043;-39
2023/03/02 08:59:48;;;;;;;9.63;4.15;;;17.10;88.10;;;;;;5096671;28;20059;-41
2023/03/02 09:02:14;;;;;;;12.95;5.25;;;17.30;88.40;;;;;;5098908;28;20058;-40
2023/03/02 09:04:41;;;;;;;14.13;6.03;;;17.50;89.30;;;;;;5096317;28;20051;-43
2023/03/02 09:07:08;;;;;;;14.82;5.72;;;17.70;89.50;;;;;;5102921;28;20105;-42
2023/03/02 09:09:34;;;;;;;15.43;5.28;;;17.90;88.90;;;;;;5110763;28;20044;-41
2023/03/02 09:12:01;;;;;;;19.33;6.20;;;18.10;88.50;;;;;;5109437;28;20078;-39
2023/03/02 09:14:28;;;;;;;17.95;5.85;;;18.20;87.70;;;;;;5111054;28;20040;-39
2023/03/02 09:16:54;;;;;;;20.05;6.35;;;18.30;87.20;;;;;;5110043;28;20550;-39
2023/03/02 09:19:21;;;;;;;33.95;8.25;;;18.40;86.60;;;;;;5110378;28;20040;-42
2023/03/02 09:21:48;;;;;;;19.67;6.55;;;18.60;86.30;;;;;;5102261;28;20506;-39
2023/03/02 09:24:15;;;;;;;26.55;7.55;;;18.60;85.60;;;;;;5109651;28;20048;-39
2023/03/02 09:26:42;;;;;;;23.63;7.25;;;18.70;85.40;;;;;;5109949;28;20039;-39
2023/03/02 09:29:08;;;;;;;24.42;7.85;;;18.80;84.90;;;;;;5111456;28;20039;-39
2023/03/02 09:31:35;;;;;;;27.27;7.68;;;18.90;84.60;;;;;;5103442;28;20082;-39
2023/03/02 09:34:02;;;;;;;19.60;6.95;;;18.90;84.00;;;;;;5108008;28;20043;-39
2023/03/02 09:36:31;;;;;;;25.75;7.93;;;18.90;83.60;;;;;;5108616;28;20039;-39
2023/03/02 09:38:58;;;;;;;26.02;7.80;;;19.00;83.30;;;;;;5110686;28;20462;-39
2023/03/02 09:41:24;;;;;;;24.35;6.93;;;19.00;83.40;;;;;;5105119;28;20076;-39
2023/03/02 09:43:51;;;;;;;23.58;7.22;;;19.10;83.30;;;;;;5110997;28;20044;-39
2023/03/02 09:46:17;;;;;;;29.25;7.57;;;19.10;83.30;;;;;;5108253;28;20040;-39
2023/03/02 09:48:44;;;;;;;23.15;7.20;;;19.10;83.00;;;;;;5111146;28;20048;-40
2023/03/02 09:51:11;;;;;;;24.95;7.25;;;19.20;83.20;;;;;;5100543;28;20044;-40
2023/03/02 09:53:37;;;;;;;17.48;6.13;;;19.20;82.90;;;;;;5092846;28;20052;-39
2023/03/02 09:56:04;;;;;;;21.05;6.50;;;19.30;82.80;;;;;;5071561;28;20044;-39
2023/03/02 09:58:31;;;;;;;20.40;6.25;;;19.30;82.70;;;;;;5085447;28;20051;-38
2023/03/02 10:00:57;;;;;;;20.42;6.28;;;19.40;83.40;;;;;;5076719;28;20354;-39
2023/03/02 10:03:24;;;;;;;26.50;7.53;;;19.40;82.60;;;;;;5081827;28;20047;-39
2023/03/02 10:05:50;;;;;;;18.83;6.20;;;19.40;82.50;;;;;;5077066;28;20064;-39
2023/03/02 10:08:17;;;;;;;15.18;5.50;;;19.40;82.30;;;;;;5057634;28;20040;-38
2023/03/02 10:10:44;;;;;;;17.45;5.47;;;19.50;82.00;;;;;;5076469;28;20037;-38
2023/03/02 10:13:10;;;;;;;17.35;5.88;;;19.50;82.10;;;;;;5066092;28;20356;-40
2023/03/02 10:15:37;;;;;;;19.48;6.03;;;19.50;81.90;;;;;;5076248;28;20051;-40
2023/03/02 10:18:04;;;;;;;16.98;5.78;;;19.50;82.00;;;;;;5074791;28;20425;-39
2023/03/02 10:20:31;;;;;;;15.15;5.28;;;19.60;81.80;;;;;;5063935;28;20094;-40
2023/03/02 10:23:00;;;;;;;16.75;5.53;;;19.60;81.70;;;;;;5066697;28;20049;-39
2023/03/02 10:25:27;;;;;;;16.88;4.95;;;19.60;81.70;;;;;;5074120;28;20043;-40
2023/03/02 10:27:54;;;;;;;15.57;5.30;;;19.70;81.30;;;;;;5075164;28;20109;-39
2023/03/02 10:30:21;;;;;;;15.30;5.70;;;19.70;81.20;;;;;;5075162;28;20037;-40
2023/03/02 10:32:47;;;;;;;14.85;5.47;;;19.80;81.20;;;;;;5074556;28;20044;-40
2023/03/02 10:35:14;;;;;;;13.43;5.40;;;19.80;81.10;;;;;;5074923;28;20058;-40
2023/03/02 10:37:40;;;;;;;13.90;5.20;;;19.90;81.00;;;;;;5074326;28;20044;-38
2023/03/02 10:40:07;;;;;;;14.38;5.70;;;19.80;80.70;;;;;;5075813;28;20041;-39
2023/03/02 10:42:34;;;;;;;16.33;5.95;;;19.90;80.60;;;;;;5066477;28;20053;-39
2023/03/02 10:45:01;;;;;;;14.13;5.10;;;19.90;80.60;;;;;;5074568;28;20047;-38
2023/03/02 10:47:27;;;;;;;12.82;5.45;;;19.90;80.50;;;;;;5074600;28;20035;-40
2023/03/02 10:49:54;;;;;;;17.42;5.43;;;20.00;80.30;;;;;;5070061;28;20037;-38
2023/03/02 10:52:21;;;;;;;14.82;5.47;;;20.00;80.20;;;;;;5063684;28;20041;-38
2023/03/02 10:54:47;;;;;;;12.73;4.85;;;20.10;80.20;;;;;;5073947;28;20135;-38
2023/03/02 10:57:14;;;;;;;12.07;5.10;;;20.00;80.00;;;;;;5074796;28;20056;-38
2023/03/02 10:59:42;;;;;;;14.20;5.45;;;20.10;80.20;;;;;;5074362;28;20040;-38
2023/03/02 11:02:08;;;;;;;12.20;4.95;;;20.10;79.80;;;;;;5069801;28;20399;-38
2023/03/02 11:04:35;;;;;;;11.65;5.30;;;20.20;79.70;;;;;;5070771;28;20041;-38
2023/03/02 11:07:02;;;;;;;12.23;4.68;;;20.20;79.70;;;;;;5074818;28;20033;-38
2023/03/02 11:09:28;;;;;;;9.65;4.30;;;20.20;79.90;;;;;;5074119;28;20340;-38
2023/03/02 11:11:55;;;;;;;10.23;4.45;;;20.20;79.50;;;;;;5055066;28;21396;-38
2023/03/02 11:14:22;;;;;;;9.52;4.25;;;20.30;79.40;;;;;;5054020;28;20444;-38
2023/03/02 11:16:49;;;;;;;11.25;4.32;;;20.20;79.30;;;;;;5072646;28;20041;-38
2023/03/02 11:19:16;;;;;;;11.38;4.30;;;20.20;79.10;;;;;;5070829;28;20475;-38
2023/03/02 11:21:42;;;;;;;10.40;4.53;;;20.30;78.90;;;;;;5073831;28;20041;-37
